Lakeville, Minnesota
Current Conditions -  °F | °C
As of 7:27 AM on Thursday 30 Oct 2014 (Local Time) from KLVN Reporting Station
Overcast Overcast  
Wind Chill: 32°   Ceiling: 5000
Heat Index: 36°   Visibility: 10mi
Dew Point: 34°   Wind: 5mph
Humidity: 93%   Direction: 50°NE
Pressure: 30.03"   Gusts: NA
Location:  44.66°N, 93.24°W
Report Text: KLVN 301227Z AUTO 05004KT 10SM OVC050 02/01 A3003 RMK AO2
Loading
Personal Weather Stations






























Interactive Weather Map
Tropical Storm Tracking
New forecast layout! Learn more

10-Day Weather Forecast

Advertisements
Track Severe Weather on mobile